sensor_id;sensor_type;location;lat;lon;timestamp;pressure;altitude;pressure_sealevel;temperature;humidity
70976;BME280;58635;51.198;6.010;2023-04-27T00:01:30;101842.72;;;11.59;43.93
70976;BME280;58635;51.198;6.010;2023-04-27T00:03:56;101835.13;;;11.58;44.00
70976;BME280;58635;51.198;6.010;2023-04-27T00:06:22;101838.88;;;11.55;44.03
70976;BME280;58635;51.198;6.010;2023-04-27T00:08:48;101844.41;;;11.52;44.04
70976;BME280;58635;51.198;6.010;2023-04-27T00:11:13;101841.19;;;11.50;44.08
70976;BME280;58635;51.198;6.010;2023-04-27T00:13:38;101842.31;;;11.48;44.18
70976;BME280;58635;51.198;6.010;2023-04-27T00:16:04;101838.28;;;11.45;44.17
70976;BME280;58635;51.198;6.010;2023-04-27T00:18:31;101840.06;;;11.45;44.15
70976;BME280;58635;51.198;6.010;2023-04-27T00:20:56;101842.03;;;11.42;44.26
70976;BME280;58635;51.198;6.010;2023-04-27T00:23:22;101837.84;;;11.41;44.35
70976;BME280;58635;51.198;6.010;2023-04-27T00:25:47;101844.97;;;11.39;44.39
70976;BME280;58635;51.198;6.010;2023-04-27T00:28:13;101841.75;;;11.37;44.55
70976;BME280;58635;51.198;6.010;2023-04-27T00:30:38;101838.50;;;11.35;44.54
70976;BME280;58635;51.198;6.010;2023-04-27T00:33:03;101833.50;;;11.34;44.52
70976;BME280;58635;51.198;6.010;2023-04-27T00:35:31;101829.66;;;11.30;44.77
70976;BME280;58635;51.198;6.010;2023-04-27T00:37:57;101828.22;;;11.27;44.86
70976;BME280;58635;51.198;6.010;2023-04-27T00:40:22;101826.31;;;11.21;45.08
70976;BME280;58635;51.198;6.010;2023-04-27T00:42:47;101836.22;;;11.18;45.00
70976;BME280;58635;51.198;6.010;2023-04-27T00:45:13;101834.78;;;11.15;45.07
70976;BME280;58635;51.198;6.010;2023-04-27T00:47:38;101838.66;;;11.11;45.04
70976;BME280;58635;51.198;6.010;2023-04-27T00:50:04;101838.84;;;11.09;45.27
70976;BME280;58635;51.198;6.010;2023-04-27T00:52:34;101839.00;;;11.08;45.32
70976;BME280;58635;51.198;6.010;2023-04-27T00:55:01;101838.38;;;11.06;45.39
70976;BME280;58635;51.198;6.010;2023-04-27T00:57:28;101829.34;;;11.02;45.42
70976;BME280;58635;51.198;6.010;2023-04-27T00:59:54;101838.06;;;11.01;45.46
70976;BME280;58635;51.198;6.010;2023-04-27T01:02:21;101836.63;;;10.98;45.63
70976;BME280;58635;51.198;6.010;2023-04-27T01:04:47;101834.38;;;10.95;45.66
70976;BME280;58635;51.198;6.010;2023-04-27T01:07:12;101832.31;;;10.91;45.75
70976;BME280;58635;51.198;6.010;2023-04-27T01:09:38;101836.03;;;10.88;45.97
70976;BME280;58635;51.198;6.010;2023-04-27T01:12:04;101832.19;;;10.84;45.92
70976;BME280;58635;51.198;6.010;2023-04-27T01:14:29;101837.06;;;10.79;45.97
70976;BME280;58635;51.198;6.010;2023-04-27T01:16:54;101841.56;;;10.77;46.26
70976;BME280;58635;51.198;6.010;2023-04-27T01:19:20;101840.94;;;10.75;46.34
70976;BME280;58635;51.198;6.010;2023-04-27T01:21:46;101844.84;;;10.71;46.45
70976;BME280;58635;51.198;6.010;2023-04-27T01:24:12;101846.19;;;10.67;46.52
70976;BME280;58635;51.198;6.010;2023-04-27T01:26:37;101840.50;;;10.63;46.55
70976;BME280;58635;51.198;6.010;2023-04-27T01:29:02;101851.19;;;10.60;46.68
70976;BME280;58635;51.198;6.010;2023-04-27T01:31:28;101854.13;;;10.57;46.65
70976;BME280;58635;51.198;6.010;2023-04-27T01:33:54;101851.88;;;10.54;46.83
70976;BME280;58635;51.198;6.010;2023-04-27T01:36:19;101853.16;;;10.50;46.63
70976;BME280;58635;51.198;6.010;2023-04-27T01:38:44;101855.28;;;10.46;47.12
70976;BME280;58635;51.198;6.010;2023-04-27T01:41:10;101857.41;;;10.43;46.97
70976;BME280;58635;51.198;6.010;2023-04-27T01:43:35;101852.53;;;10.40;47.50
70976;BME280;58635;51.198;6.010;2023-04-27T01:46:05;101847.88;;;10.35;47.56
70976;BME280;58635;51.198;6.010;2023-04-27T01:48:30;101854.38;;;10.31;47.74
70976;BME280;58635;51.198;6.010;2023-04-27T01:50:56;101848.69;;;10.28;47.77
70976;BME280;58635;51.198;6.010;2023-04-27T01:53:22;101848.06;;;10.25;47.94
70976;BME280;58635;51.198;6.010;2023-04-27T01:55:47;101842.41;;;10.22;48.06
70976;BME280;58635;51.198;6.010;2023-04-27T01:58:13;101848.84;;;10.18;48.13
70976;BME280;58635;51.198;6.010;2023-04-27T02:00:38;101847.72;;;10.12;48.74
70976;BME280;58635;51.198;6.010;2023-04-27T02:03:03;101843.06;;;10.08;48.60
70976;BME280;58635;51.198;6.010;2023-04-27T02:05:29;101851.13;;;10.05;48.56
70976;BME280;58635;51.198;6.010;2023-04-27T02:07:54;101854.03;;;10.02;48.83
70976;BME280;58635;51.198;6.010;2023-04-27T02:10:19;101846.63;;;9.99;48.72
70976;BME280;58635;51.198;6.010;2023-04-27T02:12:47;101846.78;;;9.97;48.82
70976;BME280;58635;51.198;6.010;2023-04-27T02:15:12;101846.16;;;9.95;49.11
70976;BME280;58635;51.198;6.010;2023-04-27T02:17:38;101848.06;;;9.93;49.11
70976;BME280;58635;51.198;6.010;2023-04-27T02:20:05;101845.66;;;9.91;49.23
70976;BME280;58635;51.198;6.010;2023-04-27T02:22:35;101846.94;;;9.87;49.32
70976;BME280;58635;51.198;6.010;2023-04-27T02:25:00;101842.91;;;9.85;49.50
70976;BME280;58635;51.198;6.010;2023-04-27T02:27:26;101851.78;;;9.82;49.45
70976;BME280;58635;51.198;6.010;2023-04-27T02:29:51;101845.34;;;9.78;49.58
70976;BME280;58635;51.198;6.010;2023-04-27T02:32:16;101835.16;;;9.77;49.56
70976;BME280;58635;51.198;6.010;2023-04-27T02:34:42;101838.88;;;9.74;49.73
70976;BME280;58635;51.198;6.010;2023-04-27T02:37:07;101834.84;;;9.72;49.62
70976;BME280;58635;51.198;6.010;2023-04-27T02:39:33;101827.41;;;9.68;49.93
70976;BME280;58635;51.198;6.010;2023-04-27T02:41:58;101826.94;;;9.65;49.68
70976;BME280;58635;51.198;6.010;2023-04-27T02:44:23;101824.69;;;9.62;49.72
70976;BME280;58635;51.198;6.010;2023-04-27T02:46:49;101825.94;;;9.58;49.90
70976;BME280;58635;51.198;6.010;2023-04-27T02:49:15;101830.47;;;9.56;49.88
70976;BME280;58635;51.198;6.010;2023-04-27T02:51:40;101824.66;;;9.54;49.86
70976;BME280;58635;51.198;6.010;2023-04-27T02:54:06;101820.00;;;9.49;49.93
70976;BME280;58635;51.198;6.010;2023-04-27T02:56:31;101820.28;;;9.46;49.87
70976;BME280;58635;51.198;6.010;2023-04-27T02:58:57;101824.97;;;9.43;50.05
70976;BME280;58635;51.198;6.010;2023-04-27T03:01:22;101826.91;;;9.41;49.96
70976;BME280;58635;51.198;6.010;2023-04-27T03:03:47;101822.88;;;9.38;49.80
70976;BME280;58635;51.198;6.010;2023-04-27T03:06:13;101824.81;;;9.36;50.02
70976;BME280;58635;51.198;6.010;2023-04-27T03:08:39;101825.75;;;9.35;49.83
70976;BME280;58635;51.198;6.010;2023-04-27T03:11:04;101832.69;;;9.34;49.88
70976;BME280;58635;51.198;6.010;2023-04-27T03:13:30;101826.72;;;9.34;49.94
70976;BME280;58635;51.198;6.010;2023-04-27T03:15:55;101828.66;;;9.32;49.92
70976;BME280;58635;51.198;6.010;2023-04-27T03:18:21;101823.84;;;9.29;49.79
70976;BME280;58635;51.198;6.010;2023-04-27T03:20:46;101830.94;;;9.27;49.81
70976;BME280;58635;51.198;6.010;2023-04-27T03:23:12;101827.84;;;9.23;49.95
70976;BME280;58635;51.198;6.010;2023-04-27T03:25:37;101827.19;;;9.21;50.03
70976;BME280;58635;51.198;6.010;2023-04-27T03:28:03;101823.97;;;9.19;50.19
70976;BME280;58635;51.198;6.010;2023-04-27T03:30:28;101830.25;;;9.17;50.10
70976;BME280;58635;51.198;6.010;2023-04-27T03:32:53;101832.03;;;9.16;50.08
70976;BME280;58635;51.198;6.010;2023-04-27T03:35:20;101828.81;;;9.14;50.11
70976;BME280;58635;51.198;6.010;2023-04-27T03:37:45;101834.13;;;9.13;50.38
70976;BME280;58635;51.198;6.010;2023-04-27T03:40:11;101834.44;;;9.09;50.33
70976;BME280;58635;51.198;6.010;2023-04-27T03:42:38;101829.75;;;9.05;50.45
70976;BME280;58635;51.198;6.010;2023-04-27T03:45:04;101826.69;;;9.01;50.50
70976;BME280;58635;51.198;6.010;2023-04-27T03:47:30;101824.28;;;9.00;50.59
70976;BME280;58635;51.198;6.010;2023-04-27T03:49:56;101837.47;;;8.97;50.62
70976;BME280;58635;51.198;6.010;2023-04-27T03:52:21;101836.81;;;8.95;50.74
70976;BME280;58635;51.198;6.010;2023-04-27T03:54:47;101843.75;;;8.94;50.70
70976;BME280;58635;51.198;6.010;2023-04-27T03:57:12;101843.09;;;8.92;50.98
70976;BME280;58635;51.198;6.010;2023-04-27T03:59:37;101847.47;;;8.92;50.99
70976;BME280;58635;51.198;6.010;2023-04-27T04:02:03;101851.97;;;8.90;50.89
70976;BME280;58635;51.198;6.010;2023-04-27T04:04:29;101850.47;;;8.87;50.92
70976;BME280;58635;51.198;6.010;2023-04-27T04:06:55;101852.41;;;8.85;51.06
70976;BME280;58635;51.198;6.010;2023-04-27T04:09:20;101848.53;;;8.81;51.18
70976;BME280;58635;51.198;6.010;2023-04-27T04:11:46;101855.78;;;8.77;51.31
70976;BME280;58635;51.198;6.010;2023-04-27T04:14:11;101849.31;;;8.73;51.54
70976;BME280;58635;51.198;6.010;2023-04-27T04:16:36;101852.84;;;8.72;51.29
70976;BME280;58635;51.198;6.010;2023-04-27T04:19:02;101852.84;;;8.72;51.53
70976;BME280;58635;51.198;6.010;2023-04-27T04:21:27;101846.88;;;8.72;51.45
70976;BME280;58635;51.198;6.010;2023-04-27T04:23:52;101860.59;;;8.72;51.80
70976;BME280;58635;51.198;6.010;2023-04-27T04:26:18;101858.31;;;8.69;51.64
70976;BME280;58635;51.198;6.010;2023-04-27T04:28:44;101864.44;;;8.68;51.68
70976;BME280;58635;51.198;6.010;2023-04-27T04:31:10;101859.28;;;8.68;51.78
70976;BME280;58635;51.198;6.010;2023-04-27T04:33:35;101861.88;;;8.68;52.01
70976;BME280;58635;51.198;6.010;2023-04-27T04:36:04;101867.84;;;8.69;51.82
70976;BME280;58635;51.198;6.010;2023-04-27T04:38:29;101872.03;;;8.70;51.83
70976;BME280;58635;51.198;6.010;2023-04-27T04:40:55;101865.91;;;8.71;51.82
70976;BME280;58635;51.198;6.010;2023-04-27T04:43:20;101858.16;;;8.71;51.70
70976;BME280;58635;51.198;6.010;2023-04-27T04:45:46;101862.38;;;8.72;51.87
70976;BME280;58635;51.198;6.010;2023-04-27T04:48:13;101866.56;;;8.73;51.71
70976;BME280;58635;51.198;6.010;2023-04-27T04:50:39;101878.34;;;8.75;51.78
70976;BME280;58635;51.198;6.010;2023-04-27T04:53:06;101873.03;;;8.77;51.93
70976;BME280;58635;51.198;6.010;2023-04-27T04:55:31;101874.50;;;8.79;51.67
70976;BME280;58635;51.198;6.010;2023-04-27T04:57:57;101875.78;;;8.84;51.89
70976;BME280;58635;51.198;6.010;2023-04-27T05:00:22;101875.47;;;8.87;51.84
70976;BME280;58635;51.198;6.010;2023-04-27T05:02:47;101875.19;;;8.90;51.55
70976;BME280;58635;51.198;6.010;2023-04-27T05:05:13;101869.56;;;8.94;51.70
70976;BME280;58635;51.198;6.010;2023-04-27T05:07:38;101880.19;;;8.99;51.62
70976;BME280;58635;51.198;6.010;2023-04-27T05:10:04;101876.22;;;9.05;51.49
70976;BME280;58635;51.198;6.010;2023-04-27T05:12:29;101884.16;;;9.12;51.68
70976;BME280;58635;51.198;6.010;2023-04-27T05:14:55;101879.94;;;9.19;51.48
70976;BME280;58635;51.198;6.010;2023-04-27T05:17:20;101889.66;;;9.25;51.26
70976;BME280;58635;51.198;6.010;2023-04-27T05:19:45;101887.88;;;9.33;51.22
70976;BME280;58635;51.198;6.010;2023-04-27T05:22:11;101888.72;;;9.42;51.13
70976;BME280;58635;51.198;6.010;2023-04-27T05:24:37;101884.38;;;9.51;51.09
70976;BME280;58635;51.198;6.010;2023-04-27T05:27:02;101888.75;;;9.58;50.92
70976;BME280;58635;51.198;6.010;2023-04-27T05:29:28;101890.03;;;9.71;50.64
70976;BME280;58635;51.198;6.010;2023-04-27T05:31:53;101897.81;;;9.79;50.55
70976;BME280;58635;51.198;6.010;2023-04-27T05:34:19;101896.53;;;9.83;50.56
70976;BME280;58635;51.198;6.010;2023-04-27T05:36:45;101901.84;;;9.89;50.33
70976;BME280;58635;51.198;6.010;2023-04-27T05:39:13;101894.75;;;10.00;50.30
70976;BME280;58635;51.198;6.010;2023-04-27T05:41:38;101902.66;;;10.14;50.05
70976;BME280;58635;51.198;6.010;2023-04-27T05:44:04;101890.06;;;10.28;49.94
70976;BME280;58635;51.198;6.010;2023-04-27T05:46:31;101898.94;;;10.41;49.52
70976;BME280;58635;51.198;6.010;2023-04-27T05:48:56;101895.19;;;10.52;49.29
70976;BME280;58635;51.198;6.010;2023-04-27T05:51:22;101903.56;;;10.70;48.97
70976;BME280;58635;51.198;6.010;2023-04-27T05:53:47;101899.28;;;10.86;48.85
70976;BME280;58635;51.198;6.010;2023-04-27T05:56:12;101907.00;;;11.02;48.61
70976;BME280;58635;51.198;6.010;2023-04-27T05:58:38;101906.94;;;11.18;48.28
70976;BME280;58635;51.198;6.010;2023-04-27T06:01:03;101905.13;;;11.27;47.94
70976;BME280;58635;51.198;6.010;2023-04-27T06:03:29;101912.97;;;11.41;47.81
70976;BME280;58635;51.198;6.010;2023-04-27T06:05:56;101912.38;;;11.54;47.51
70976;BME280;58635;51.198;6.010;2023-04-27T06:08:21;101909.94;;;11.61;47.21
70976;BME280;58635;51.198;6.010;2023-04-27T06:10:47;101915.38;;;11.66;47.07
70976;BME280;58635;51.198;6.010;2023-04-27T06:13:12;101908.59;;;11.65;47.05
70976;BME280;58635;51.198;6.010;2023-04-27T06:15:38;101910.56;;;11.63;46.96
70976;BME280;58635;51.198;6.010;2023-04-27T06:18:03;101902.44;;;11.66;46.95
70976;BME280;58635;51.198;6.010;2023-04-27T06:20:29;101906.22;;;11.78;47.06
70976;BME280;58635;51.198;6.010;2023-04-27T06:22:56;101908.72;;;11.94;46.77
70976;BME280;58635;51.198;6.010;2023-04-27T06:25:22;101909.03;;;12.14;46.31
70976;BME280;58635;51.198;6.010;2023-04-27T06:27:47;101903.16;;;12.20;46.04
70976;BME280;58635;51.198;6.010;2023-04-27T06:30:13;101902.88;;;12.30;45.96
70976;BME280;58635;51.198;6.010;2023-04-27T06:32:38;101900.84;;;12.40;45.53
70976;BME280;58635;51.198;6.010;2023-04-27T06:35:04;101904.28;;;12.55;45.44
70976;BME280;58635;51.198;6.010;2023-04-27T06:37:30;101903.09;;;12.73;44.96
70976;BME280;58635;51.198;6.010;2023-04-27T06:39:55;101902.09;;;12.88;44.83
70976;BME280;58635;51.198;6.010;2023-04-27T06:42:20;101898.94;;;13.08;44.64
70976;BME280;58635;51.198;6.010;2023-04-27T06:44:46;101903.38;;;13.14;44.06
70976;BME280;58635;51.198;6.010;2023-04-27T06:47:11;101904.84;;;13.16;44.53
70976;BME280;58635;51.198;6.010;2023-04-27T06:49:37;101911.81;;;13.31;44.04
70976;BME280;58635;51.198;6.010;2023-04-27T06:52:02;101908.78;;;13.49;43.83
70976;BME280;58635;51.198;6.010;2023-04-27T06:54:28;101903.91;;;13.60;43.43
70976;BME280;58635;51.198;6.010;2023-04-27T06:56:53;101899.34;;;13.62;42.96
70976;BME280;58635;51.198;6.010;2023-04-27T06:59:19;101896.31;;;13.59;42.73
70976;BME280;58635;51.198;6.010;2023-04-27T07:01:45;101893.34;;;13.62;42.70
70976;BME280;58635;51.198;6.010;2023-04-27T07:04:10;101903.41;;;13.71;42.63
70976;BME280;58635;51.198;6.010;2023-04-27T07:06:36;101897.53;;;13.84;42.60
70976;BME280;58635;51.198;6.010;2023-04-27T07:09:01;101896.38;;;13.87;42.50
70976;BME280;58635;51.198;6.010;2023-04-27T07:11:29;101898.41;;;13.91;42.42
70976;BME280;58635;51.198;6.010;2023-04-27T07:13:54;101901.06;;;13.98;42.40
70976;BME280;58635;51.198;6.010;2023-04-27T07:16:20;101906.09;;;14.06;42.01
70976;BME280;58635;51.198;6.010;2023-04-27T07:18:45;101902.19;;;14.17;41.80
70976;BME280;58635;51.198;6.010;2023-04-27T07:21:11;101904.50;;;14.33;41.83
70976;BME280;58635;51.198;6.010;2023-04-27T07:23:38;101896.53;;;14.41;41.18
70976;BME280;58635;51.198;6.010;2023-04-27T07:26:03;101899.75;;;14.43;41.30
70976;BME280;58635;51.198;6.010;2023-04-27T07:28:29;101901.44;;;14.51;40.87
70976;BME280;58635;51.198;6.010;2023-04-27T07:30:54;101896.88;;;14.59;40.52
70976;BME280;58635;51.198;6.010;2023-04-27T07:33:20;101895.50;;;14.63;40.10
70976;BME280;58635;51.198;6.010;2023-04-27T07:35:46;101897.09;;;14.65;40.24
70976;BME280;58635;51.198;6.010;2023-04-27T07:38:12;101892.50;;;14.67;39.93
70976;BME280;58635;51.198;6.010;2023-04-27T07:40:37;101899.31;;;14.68;40.16
70976;BME280;58635;51.198;6.010;2023-04-27T07:43:03;101904.38;;;14.76;40.11
70976;BME280;58635;51.198;6.010;2023-04-27T07:45:29;101908.22;;;14.86;39.92
70976;BME280;58635;51.198;6.010;2023-04-27T07:47:58;101907.25;;;14.94;39.93
70976;BME280;58635;51.198;6.010;2023-04-27T07:50:28;101902.25;;;14.99;39.73
70976;BME280;58635;51.198;6.010;2023-04-27T07:52:54;101903.25;;;14.98;39.65
70976;BME280;58635;51.198;6.010;2023-04-27T07:55:20;101895.84;;;14.95;39.84
70976;BME280;58635;51.198;6.010;2023-04-27T07:57:51;101897.44;;;14.96;39.59
70976;BME280;58635;51.198;6.010;2023-04-27T08:00:16;101897.66;;;14.95;39.39
70976;BME280;58635;51.198;6.010;2023-04-27T08:02:42;101896.41;;;14.90;39.45
70976;BME280;58635;51.198;6.010;2023-04-27T08:05:07;101901.66;;;14.97;39.31
70976;BME280;58635;51.198;6.010;2023-04-27T08:07:33;101897.88;;;15.06;39.06
70976;BME280;58635;51.198;6.010;2023-04-27T08:09:59;101890.69;;;15.15;38.90
70976;BME280;58635;51.198;6.010;2023-04-27T08:12:24;101893.09;;;15.10;38.52
70976;BME280;58635;51.198;6.010;2023-04-27T08:14:50;101883.63;;;15.02;38.59
70976;BME280;58635;51.198;6.010;2023-04-27T08:17:15;101885.63;;;15.00;38.34
70976;BME280;58635;51.198;6.010;2023-04-27T08:19:42;101880.00;;;14.97;38.36
70976;BME280;58635;51.198;6.010;2023-04-27T08:22:08;101884.88;;;15.06;38.23
70976;BME280;58635;51.198;6.010;2023-04-27T08:24:33;101884.06;;;15.12;37.98
70976;BME280;58635;51.198;6.010;2023-04-27T08:26:58;101881.50;;;15.19;37.85
70976;BME280;58635;51.198;6.010;2023-04-27T08:29:24;101886.31;;;15.29;37.73
70976;BME280;58635;51.198;6.010;2023-04-27T08:31:49;101884.13;;;15.32;37.28
70976;BME280;58635;51.198;6.010;2023-04-27T08:34:15;101881.72;;;15.37;37.18
70976;BME280;58635;51.198;6.010;2023-04-27T08:36:40;101881.75;;;15.44;36.95
70976;BME280;58635;51.198;6.010;2023-04-27T08:39:06;101882.34;;;15.39;36.73
70976;BME280;58635;51.198;6.010;2023-04-27T08:41:32;101873.69;;;15.39;36.76
70976;BME280;58635;51.198;6.010;2023-04-27T08:43:58;101873.50;;;15.47;36.54
70976;BME280;58635;51.198;6.010;2023-04-27T08:46:24;101868.91;;;15.56;36.35
70976;BME280;58635;51.198;6.010;2023-04-27T08:48:53;101874.75;;;15.71;36.10
70976;BME280;58635;51.198;6.010;2023-04-27T08:51:19;101855.91;;;15.82;35.49
70976;BME280;58635;51.198;6.010;2023-04-27T08:56:13;101862.53;;;15.91;34.91
70976;BME280;58635;51.198;6.010;2023-04-27T08:58:38;101853.69;;;15.92;34.70
70976;BME280;58635;51.198;6.010;2023-04-27T09:01:07;101850.66;;;15.95;34.25
70976;BME280;58635;51.198;6.010;2023-04-27T09:03:33;101849.88;;;15.95;33.86
70976;BME280;58635;51.198;6.010;2023-04-27T09:05:59;101848.28;;;15.94;33.97
70976;BME280;58635;51.198;6.010;2023-04-27T09:08:25;101846.25;;;15.96;33.77
70976;BME280;58635;51.198;6.010;2023-04-27T09:10:51;101852.28;;;15.96;33.55
70976;BME280;58635;51.198;6.010;2023-04-27T09:13:17;101850.88;;;16.00;33.38
70976;BME280;58635;51.198;6.010;2023-04-27T09:15:47;101850.84;;;16.07;33.43
70976;BME280;58635;51.198;6.010;2023-04-27T09:18:18;101841.00;;;16.16;33.47
70976;BME280;58635;51.198;6.010;2023-04-27T09:20:49;101844.00;;;16.26;32.97
70976;BME280;58635;51.198;6.010;2023-04-27T09:23:44;101840.97;;;16.35;32.54
70976;BME280;58635;51.198;6.010;2023-04-27T09:26:22;101840.94;;;16.42;32.08
70976;BME280;58635;51.198;6.010;2023-04-27T09:28:49;101837.88;;;16.52;32.03
70976;BME280;58635;51.198;6.010;2023-04-27T09:31:15;101844.66;;;16.66;32.09
70976;BME280;58635;51.198;6.010;2023-04-27T09:33:42;101845.91;;;16.70;32.01
70976;BME280;58635;51.198;6.010;2023-04-27T09:36:08;101830.81;;;16.72;31.81
70976;BME280;58635;51.198;6.010;2023-04-27T09:38:33;101829.59;;;16.75;31.73
70976;BME280;58635;51.198;6.010;2023-04-27T09:40:59;101832.00;;;16.76;31.52
70976;BME280;58635;51.198;6.010;2023-04-27T09:43:25;101831.41;;;16.74;31.23
70976;BME280;58635;51.198;6.010;2023-04-27T09:45:53;101828.56;;;16.76;31.05
70976;BME280;58635;51.198;6.010;2023-04-27T09:48:21;101833.16;;;16.87;30.77
70976;BME280;58635;51.198;6.010;2023-04-27T09:50:47;101831.91;;;16.89;30.82
70976;BME280;58635;51.198;6.010;2023-04-27T09:53:16;101836.28;;;17.02;30.24
70976;BME280;58635;51.198;6.010;2023-04-27T10:07:08;101811.06;;;17.39;29.53
70976;BME280;58635;51.198;6.010;2023-04-27T10:09:36;101811.63;;;17.48;29.55
70976;BME280;58635;51.198;6.010;2023-04-27T10:17:17;101815.63;;;17.50;29.29
70976;BME280;58635;51.198;6.010;2023-04-27T10:19:54;101814.91;;;17.62;29.07
70976;BME280;58635;51.198;6.010;2023-04-27T10:22:20;101812.38;;;17.55;29.52
70976;BME280;58635;51.198;6.010;2023-04-27T10:24:49;101806.75;;;17.51;29.28
70976;BME280;58635;51.198;6.010;2023-04-27T10:27:18;101808.38;;;17.52;28.90
70976;BME280;58635;51.198;6.010;2023-04-27T10:29:49;101797.63;;;17.61;28.78
70976;BME280;58635;51.198;6.010;2023-04-27T10:32:25;101794.34;;;17.72;28.56
70976;BME280;58635;51.198;6.010;2023-04-27T10:34:51;101801.47;;;17.83;28.79
70976;BME280;58635;51.198;6.010;2023-04-27T10:37:17;101807.81;;;17.94;28.32
70976;BME280;58635;51.198;6.010;2023-04-27T10:39:44;101801.41;;;18.08;28.21
70976;BME280;58635;51.198;6.010;2023-04-27T10:42:10;101800.97;;;18.11;28.01
70976;BME280;58635;51.198;6.010;2023-04-27T10:44:37;101803.75;;;18.16;27.83
70976;BME280;58635;51.198;6.010;2023-04-27T10:47:14;101801.22;;;18.28;27.90
70976;BME280;58635;51.198;6.010;2023-04-27T10:49:40;101809.69;;;18.41;27.54
70976;BME280;58635;51.198;6.010;2023-04-27T10:52:06;101799.06;;;18.55;27.90
70976;BME280;58635;51.198;6.010;2023-04-27T10:54:32;101810.47;;;18.79;28.04
70976;BME280;58635;51.198;6.010;2023-04-27T10:59:31;101798.94;;;19.10;27.85
70976;BME280;58635;51.198;6.010;2023-04-27T11:01:56;101798.03;;;19.27;27.34
70976;BME280;58635;51.198;6.010;2023-04-27T11:04:22;101791.44;;;19.37;26.40
70976;BME280;58635;51.198;6.010;2023-04-27T11:06:47;101788.25;;;19.35;26.82
70976;BME280;58635;51.198;6.010;2023-04-27T11:09:24;101793.03;;;19.38;26.58
70976;BME280;58635;51.198;6.010;2023-04-27T11:11:51;101782.53;;;19.38;26.14
70976;BME280;58635;51.198;6.010;2023-04-27T11:14:19;101782.44;;;19.44;26.15
70976;BME280;58635;51.198;6.010;2023-04-27T11:16:46;101780.25;;;19.53;25.82
70976;BME280;58635;51.198;6.010;2023-04-27T11:19:12;101771.41;;;19.66;25.71
70976;BME280;58635;51.198;6.010;2023-04-27T11:21:38;101763.84;;;19.81;25.59
70976;BME280;58635;51.198;6.010;2023-04-27T11:24:07;101759.06;;;19.90;25.30
70976;BME280;58635;51.198;6.010;2023-04-27T11:26:34;101755.03;;;19.87;25.59
70976;BME280;58635;51.198;6.010;2023-04-27T11:29:07;101759.63;;;19.80;25.16
70976;BME280;58635;51.198;6.010;2023-04-27T11:31:43;101751.66;;;19.63;24.95
70976;BME280;58635;51.198;6.010;2023-04-27T11:34:21;101754.97;;;19.59;25.30
70976;BME280;58635;51.198;6.010;2023-04-27T11:37:01;101751.56;;;19.58;25.12
70976;BME280;58635;51.198;6.010;2023-04-27T11:39:31;101750.50;;;19.71;25.44
70976;BME280;58635;51.198;6.010;2023-04-27T11:41:57;101738.97;;;19.83;25.28
70976;BME280;58635;51.198;6.010;2023-04-27T11:44:38;101739.41;;;19.92;25.25
70976;BME280;58635;51.198;6.010;2023-04-27T11:47:05;101738.69;;;19.97;24.81
70976;BME280;58635;51.198;6.010;2023-04-27T11:49:31;101741.22;;;19.92;24.57
70976;BME280;58635;51.198;6.010;2023-04-27T11:51:56;101733.38;;;19.80;24.61
70976;BME280;58635;51.198;6.010;2023-04-27T11:54:27;101734.66;;;19.77;24.55
70976;BME280;58635;51.198;6.010;2023-04-27T11:57:03;101737.13;;;19.84;24.44
70976;BME280;58635;51.198;6.010;2023-04-27T11:59:29;101731.53;;;19.92;24.20
70976;BME280;58635;51.198;6.010;2023-04-27T12:01:54;101730.56;;;20.10;24.30
70976;BME280;58635;51.198;6.010;2023-04-27T12:04:20;101729.59;;;20.28;23.82
70976;BME280;58635;51.198;6.010;2023-04-27T12:06:45;101721.22;;;20.42;23.85
70976;BME280;58635;51.198;6.010;2023-04-27T12:09:11;101721.72;;;20.56;24.18
70976;BME280;58635;51.198;6.010;2023-04-27T12:11:37;101719.50;;;20.65;24.15
70976;BME280;58635;51.198;6.010;2023-04-27T12:14:02;101730.19;;;20.75;24.32
70976;BME280;58635;51.198;6.010;2023-04-27T12:16:28;101730.38;;;20.85;24.41
70976;BME280;58635;51.198;6.010;2023-04-27T12:18:53;101732.13;;;20.96;24.16
70976;BME280;58635;51.198;6.010;2023-04-27T12:21:19;101729.31;;;21.03;23.94
70976;BME280;58635;51.198;6.010;2023-04-27T12:23:44;101729.06;;;21.05;24.05
70976;BME280;58635;51.198;6.010;2023-04-27T12:26:10;101726.69;;;21.03;24.15
70976;BME280;58635;51.198;6.010;2023-04-27T12:28:36;101718.88;;;21.08;23.98
70976;BME280;58635;51.198;6.010;2023-04-27T12:31:03;101717.41;;;21.17;23.84
70976;BME280;58635;51.198;6.010;2023-04-27T12:33:29;101725.88;;;21.19;23.94
70976;BME280;58635;51.198;6.010;2023-04-27T12:35:54;101712.00;;;21.24;23.89
70976;BME280;58635;51.198;6.010;2023-04-27T12:38:20;101719.59;;;21.20;23.54
70976;BME280;58635;51.198;6.010;2023-04-27T12:40:46;101707.56;;;21.08;23.63
70976;BME280;58635;51.198;6.010;2023-04-27T12:43:12;101712.25;;;21.06;23.34
70976;BME280;58635;51.198;6.010;2023-04-27T12:45:37;101701.47;;;21.07;23.83
70976;BME280;58635;51.198;6.010;2023-04-27T12:48:04;101706.97;;;21.06;23.57
70976;BME280;58635;51.198;6.010;2023-04-27T12:50:30;101706.97;;;21.06;23.56
70976;BME280;58635;51.198;6.010;2023-04-27T12:52:56;101718.31;;;21.06;23.53
70976;BME280;58635;51.198;6.010;2023-04-27T12:55:21;101712.19;;;21.00;23.61
70976;BME280;58635;51.198;6.010;2023-04-27T12:57:47;101712.31;;;20.94;23.74
70976;BME280;58635;51.198;6.010;2023-04-27T13:00:12;101713.84;;;20.90;24.46
70976;BME280;58635;51.198;6.010;2023-04-27T13:02:38;101711.88;;;20.97;24.09
70976;BME280;58635;51.198;6.010;2023-04-27T13:05:03;101703.81;;;21.20;24.04
70976;BME280;58635;51.198;6.010;2023-04-27T13:07:31;101705.28;;;21.50;24.14
70976;BME280;58635;51.198;6.010;2023-04-27T13:09:57;101700.41;;;21.80;23.70